createdAt,value
2022-07-29T00:02:26.776Z,1.08
2022-07-29T00:04:53.588Z,1.17
2022-07-29T00:07:20.116Z,1.15
2022-07-29T00:09:52.167Z,1.40
2022-07-29T00:12:25.510Z,1.42
2022-07-29T00:14:56.631Z,1.05
2022-07-29T00:17:24.271Z,1.45
2022-07-29T00:19:50.831Z,1.35
2022-07-29T00:22:17.515Z,1.25
2022-07-29T00:24:44.037Z,1.42
2022-07-29T00:27:10.454Z,1.30
2022-07-29T00:29:36.970Z,1.38
2022-07-29T00:32:04.117Z,0.88
2022-07-29T00:34:50.456Z,1.23
2022-07-29T00:37:17.365Z,1.30
2022-07-29T00:39:44.548Z,1.35
2022-07-29T00:42:11.056Z,1.30
2022-07-29T00:44:41.821Z,1.20
2022-07-29T00:47:10.173Z,1.20
2022-07-29T00:49:37.553Z,1.00
2022-07-29T00:52:05.975Z,1.15
2022-07-29T00:54:34.436Z,1.40
2022-07-29T00:57:01.610Z,1.33
2022-07-29T00:59:35.019Z,1.10
2022-07-29T01:02:02.289Z,1.10
2022-07-29T01:04:30.598Z,1.08
2022-07-29T01:06:57.367Z,0.95
2022-07-29T01:09:35.067Z,1.30
2022-07-29T01:12:13.896Z,1.20
2022-07-29T01:14:41.492Z,1.10
2022-07-29T01:17:15.036Z,1.33
2022-07-29T01:20:18.512Z,1.27
2022-07-29T01:23:28.695Z,1.48
2022-07-29T01:26:24.195Z,1.40
2022-07-29T01:29:05.364Z,1.00
2022-07-29T01:31:59.464Z,1.27
2022-07-29T01:34:53.325Z,1.27
2022-07-29T01:37:27.037Z,1.15
2022-07-29T01:39:56.351Z,1.10
2022-07-29T01:42:32.988Z,1.20
2022-07-29T01:45:54.050Z,1.15
2022-07-29T01:48:31.029Z,1.27
2022-07-29T01:51:05.687Z,1.40
2022-07-29T01:53:40.199Z,1.08
2022-07-29T01:56:08.154Z,1.20
2022-07-29T01:58:36.631Z,1.40
2022-07-29T02:01:04.446Z,1.20
2022-07-29T02:03:34.325Z,1.10
2022-07-29T02:06:02.464Z,1.13
2022-07-29T02:08:30.428Z,1.30
2022-07-29T02:10:58.780Z,1.10
2022-07-29T02:13:28.595Z,1.13
2022-07-29T02:15:56.695Z,1.35
2022-07-29T02:18:28.204Z,1.23
2022-07-29T02:20:57.425Z,1.30
2022-07-29T02:23:25.120Z,1.10
2022-07-29T02:25:57.280Z,1.35
2022-07-29T02:28:27.445Z,1.17
2022-07-29T02:30:56.482Z,1.38
2022-07-29T02:33:25.342Z,1.45
2022-07-29T02:35:53.108Z,1.45
2022-07-29T02:38:41.088Z,1.00
2022-07-29T02:41:13.044Z,1.20
2022-07-29T02:43:41.491Z,1.10
2022-07-29T02:46:29.019Z,1.10
2022-07-29T02:49:10.189Z,1.35
2022-07-29T02:51:46.660Z,1.30
2022-07-29T02:54:23.634Z,1.70
2022-07-29T02:56:53.551Z,1.35
2022-07-29T02:59:26.433Z,1.05
2022-07-29T03:01:54.479Z,1.15
2022-07-29T03:04:22.949Z,1.30
2022-07-29T03:06:51.941Z,1.00
2022-07-29T03:09:18.750Z,1.27
2022-07-29T03:11:50.610Z,1.27
2022-07-29T03:14:21.417Z,1.50
2022-07-29T03:16:49.256Z,1.00
2022-07-29T03:19:16.083Z,1.27
2022-07-29T03:21:42.587Z,1.45
2022-07-29T03:24:12.549Z,1.33
2022-07-29T03:26:39.143Z,1.27
2022-07-29T03:29:05.874Z,1.20
2022-07-29T03:31:32.494Z,1.40
2022-07-29T03:34:00.143Z,1.30
2022-07-29T03:36:26.577Z,1.10
2022-07-29T03:38:53.395Z,1.17
2022-07-29T03:41:23.761Z,1.30
2022-07-29T03:43:52.708Z,1.20
2022-07-29T03:46:23.675Z,1.38
2022-07-29T03:48:53.545Z,1.15
2022-07-29T03:51:20.109Z,1.42
2022-07-29T03:54:00.354Z,1.20
2022-07-29T03:56:28.908Z,1.27
2022-07-29T03:58:56.602Z,1.30
2022-07-29T04:01:23.608Z,1.42
2022-07-29T04:03:50.603Z,1.15
2022-07-29T04:06:17.131Z,1.63
2022-07-29T04:08:43.571Z,1.35
2022-07-29T04:11:10.203Z,1.40
2022-07-29T04:13:36.637Z,1.13
2022-07-29T04:16:03.137Z,1.60
2022-07-29T04:18:29.595Z,1.17
2022-07-29T04:20:56.012Z,1.23
2022-07-29T04:23:22.472Z,1.38
2022-07-29T04:25:49.028Z,1.08
2022-07-29T04:28:15.566Z,1.20
2022-07-29T04:30:43.629Z,1.10
2022-07-29T04:33:10.084Z,1.23
2022-07-29T04:35:49.891Z,1.20
2022-07-29T04:38:18.778Z,1.25
2022-07-29T04:40:45.280Z,1.58
2022-07-29T04:43:11.883Z,1.52
2022-07-29T04:45:40.713Z,1.50
2022-07-29T04:48:07.159Z,1.20
2022-07-29T04:50:33.589Z,1.50
2022-07-29T04:53:00.114Z,1.42
2022-07-29T04:55:26.672Z,1.10
2022-07-29T04:57:53.119Z,1.45
2022-07-29T05:00:19.571Z,1.30
2022-07-29T05:02:46.073Z,1.08
2022-07-29T05:05:12.593Z,1.25
2022-07-29T05:07:41.882Z,1.20
2022-07-29T05:10:09.262Z,1.30
2022-07-29T05:12:35.760Z,1.00
2022-07-29T05:15:02.207Z,1.38
2022-07-29T05:17:28.742Z,1.27
2022-07-29T05:19:55.266Z,1.17
2022-07-29T05:22:21.914Z,1.50
2022-07-29T05:24:48.594Z,1.23
2022-07-29T05:27:15.075Z,1.27
2022-07-29T05:29:44.494Z,1.20
2022-07-29T05:32:13.600Z,1.10
2022-07-29T05:34:51.278Z,1.40
2022-07-29T05:37:19.952Z,1.17
2022-07-29T05:39:50.548Z,1.42
2022-07-29T05:42:22.567Z,1.30
2022-07-29T05:44:49.152Z,1.40
2022-07-29T05:47:15.593Z,1.00
2022-07-29T05:49:42.367Z,1.10
2022-07-29T05:52:09.963Z,1.38
2022-07-29T05:54:36.677Z,1.13
2022-07-29T05:57:04.018Z,1.27
2022-07-29T05:59:30.791Z,1.40
2022-07-29T06:01:58.328Z,1.52
2022-07-29T06:04:25.068Z,1.33
2022-07-29T06:06:51.868Z,1.50
2022-07-29T06:09:18.387Z,1.33
2022-07-29T06:11:44.853Z,1.35
2022-07-29T06:14:11.473Z,1.45
2022-07-29T06:16:38.021Z,1.25
2022-07-29T06:19:05.377Z,1.00
2022-07-29T06:21:31.784Z,1.38
2022-07-29T06:23:58.183Z,1.10
2022-07-29T06:26:30.223Z,1.67
2022-07-29T06:28:58.101Z,1.55
2022-07-29T06:31:24.662Z,1.20
2022-07-29T06:33:51.288Z,1.35
2022-07-29T06:36:20.458Z,1.17
2022-07-29T06:38:51.318Z,1.40
2022-07-29T06:41:18.946Z,1.33
2022-07-29T06:43:52.509Z,1.30
2022-07-29T06:46:22.976Z,1.40
2022-07-29T06:48:50.543Z,1.08
2022-07-29T06:51:22.201Z,1.40
2022-07-29T06:53:59.823Z,1.15
2022-07-29T06:56:39.084Z,1.52
2022-07-29T06:59:06.494Z,1.40
2022-07-29T07:01:32.967Z,1.17
2022-07-29T07:03:59.592Z,1.10
2022-07-29T07:06:26.082Z,1.20
2022-07-29T07:08:52.516Z,1.35
2022-07-29T07:11:19.042Z,1.35
2022-07-29T07:13:45.486Z,1.40
2022-07-29T07:16:11.949Z,1.27
2022-07-29T07:18:38.377Z,1.38
2022-07-29T07:21:05.992Z,1.20
2022-07-29T07:23:32.724Z,1.30
2022-07-29T07:25:59.175Z,1.40
2022-07-29T07:28:25.601Z,1.13
2022-07-29T07:30:53.183Z,1.52
2022-07-29T07:33:20.372Z,1.30
2022-07-29T07:35:47.072Z,1.42
2022-07-29T07:38:14.146Z,1.50
2022-07-29T07:40:41.531Z,1.15
2022-07-29T07:43:08.080Z,1.45
2022-07-29T07:45:34.860Z,1.38
2022-07-29T07:48:01.443Z,1.20
2022-07-29T07:50:27.899Z,1.23
2022-07-29T07:52:59.711Z,1.42
2022-07-29T07:55:27.074Z,1.45
2022-07-29T07:57:54.189Z,1.60
2022-07-29T08:00:23.108Z,1.60
2022-07-29T08:02:51.062Z,1.50
2022-07-29T08:05:18.121Z,1.45
2022-07-29T08:07:48.299Z,1.27
2022-07-29T08:10:16.005Z,1.10
2022-07-29T08:12:44.223Z,1.40
2022-07-29T08:15:10.719Z,1.42
2022-07-29T08:17:37.212Z,1.33
2022-07-29T08:20:04.325Z,1.25
2022-07-29T08:22:30.853Z,1.65
2022-07-29T08:24:57.384Z,1.60
2022-07-29T08:27:44.904Z,1.60
2022-07-29T08:30:11.268Z,1.38
2022-07-29T08:32:53.027Z,1.30
2022-07-29T08:35:21.916Z,1.00
2022-07-29T08:37:48.515Z,1.50
2022-07-29T08:40:17.892Z,1.30
2022-07-29T08:42:44.404Z,1.15
2022-07-29T08:45:11.352Z,1.48
2022-07-29T08:47:40.979Z,1.40
2022-07-29T08:50:11.507Z,1.40
2022-07-29T08:52:40.457Z,1.13
2022-07-29T08:55:08.628Z,1.23
2022-07-29T08:57:37.288Z,1.23
2022-07-29T09:00:07.964Z,1.25
2022-07-29T09:02:41.608Z,1.38
2022-07-29T09:05:09.318Z,1.02
2022-07-29T09:07:36.238Z,1.20
2022-07-29T09:10:04.847Z,1.20
2022-07-29T09:12:36.103Z,1.38
2022-07-29T09:15:04.546Z,1.38
2022-07-29T09:17:48.438Z,1.40
2022-07-29T09:20:18.313Z,1.27
2022-07-29T09:22:49.975Z,1.30
2022-07-29T09:25:33.700Z,1.50
2022-07-29T09:28:14.213Z,1.25
2022-07-29T09:30:55.071Z,1.45
2022-07-29T09:33:23.245Z,1.30
2022-07-29T09:36:10.330Z,1.10
2022-07-29T09:38:38.247Z,1.50
2022-07-29T09:41:06.941Z,1.08
2022-07-29T09:43:34.471Z,1.20
2022-07-29T09:46:12.457Z,1.30
2022-07-29T09:48:39.066Z,0.95
2022-07-29T09:51:06.842Z,1.30
2022-07-29T09:53:38.080Z,1.30
2022-07-29T09:56:05.885Z,1.33
2022-07-29T09:58:34.700Z,1.65
2022-07-29T10:01:01.217Z,1.00
2022-07-29T10:03:27.771Z,1.42
2022-07-29T10:06:11.598Z,1.08
2022-07-29T10:08:39.281Z,1.33
2022-07-29T10:11:18.916Z,1.70
2022-07-29T10:13:48.169Z,1.10
2022-07-29T10:16:16.004Z,1.45
2022-07-29T10:18:44.653Z,1.20
2022-07-29T10:21:11.576Z,1.30
2022-07-29T10:23:59.538Z,1.77
2022-07-29T10:26:27.863Z,1.38
2022-07-29T10:28:54.325Z,1.30
2022-07-29T10:31:30.475Z,1.52
2022-07-29T10:34:12.433Z,1.50
2022-07-29T10:40:47.662Z,1.38
2022-07-29T10:46:05.287Z,1.13
2022-07-29T10:48:34.203Z,1.35
2022-07-29T10:53:54.067Z,1.40
2022-07-29T10:56:28.875Z,1.88
2022-07-29T11:01:49.351Z,1.20
2022-07-29T11:04:44.478Z,1.30
2022-07-29T11:07:12.211Z,1.60
2022-07-29T11:09:39.106Z,1.50
2022-07-29T11:12:37.450Z,1.50
2022-07-29T11:15:07.946Z,1.45
2022-07-29T11:17:53.323Z,1.30
2022-07-29T11:20:42.697Z,1.55
2022-07-29T11:23:25.525Z,1.60
2022-07-29T11:26:10.310Z,1.58
2022-07-29T11:28:50.897Z,1.55
2022-07-29T11:31:35.748Z,1.70
2022-07-29T11:34:28.147Z,1.50
2022-07-29T11:37:17.580Z,1.42
2022-07-29T11:40:01.487Z,1.50
2022-07-29T11:42:32.245Z,1.55
2022-07-29T11:45:41.159Z,1.48
2022-07-29T11:48:05.363Z,1.60
2022-07-29T11:50:45.896Z,1.40
2022-07-29T11:53:15.089Z,1.45
2022-07-29T11:55:51.416Z,1.33
2022-07-29T11:58:25.043Z,1.63
2022-07-29T12:00:52.475Z,1.75
2022-07-29T12:03:35.567Z,1.48
2022-07-29T12:06:14.928Z,1.90
2022-07-29T12:08:43.698Z,1.33
2022-07-29T12:11:20.810Z,1.90
2022-07-29T12:13:49.186Z,1.77
2022-07-29T12:16:16.350Z,1.70
2022-07-29T12:19:03.812Z,1.60
2022-07-29T12:21:50.941Z,1.63
2022-07-29T12:24:23.287Z,1.33
2022-07-29T12:26:58.672Z,1.63
2022-07-29T12:29:34.988Z,1.50
2022-07-29T12:32:04.447Z,1.80
2022-07-29T12:34:31.765Z,1.60
2022-07-29T12:36:58.547Z,1.73
2022-07-29T12:39:27.572Z,1.90
2022-07-29T12:41:54.309Z,1.70
2022-07-29T12:44:51.243Z,1.50
2022-07-29T12:49:47.838Z,1.75
2022-07-29T12:52:31.707Z,1.80
2022-07-29T12:54:58.352Z,2.00
2022-07-29T12:57:25.192Z,1.52
2022-07-29T13:00:13.691Z,1.67
2022-07-29T13:02:41.934Z,1.73
2022-07-29T13:05:09.796Z,1.92
2022-07-29T13:07:54.621Z,2.00
2022-07-29T13:10:24.340Z,1.70
2022-07-29T13:13:14.049Z,1.90
2022-07-29T13:15:47.797Z,1.63
2022-07-29T13:18:39.136Z,1.60
2022-07-29T13:21:14.113Z,1.65
2022-07-29T13:23:40.557Z,1.77
2022-07-29T13:26:11.056Z,2.00
2022-07-29T13:28:37.619Z,1.80
2022-07-29T13:31:05.869Z,1.77
2022-07-29T13:33:32.355Z,2.13
2022-07-29T13:35:58.829Z,2.20
2022-07-29T13:38:31.345Z,2.10
2022-07-29T13:40:58.047Z,1.98
2022-07-29T13:43:24.536Z,1.92
2022-07-29T13:45:51.048Z,1.90
2022-07-29T13:48:17.510Z,2.30
2022-07-29T13:50:44.198Z,1.67
2022-07-29T13:53:10.627Z,2.05
2022-07-29T13:55:44.106Z,1.88
2022-07-29T13:58:10.543Z,2.10
2022-07-29T14:00:36.982Z,1.67
2022-07-29T14:03:03.743Z,1.70
2022-07-29T14:05:30.247Z,1.95
2022-07-29T14:07:56.655Z,1.83
2022-07-29T14:10:23.186Z,1.88
2022-07-29T14:12:49.586Z,1.88
2022-07-29T14:15:16.002Z,1.95
2022-07-29T14:17:42.465Z,1.90
2022-07-29T14:20:09.339Z,2.15
2022-07-29T14:25:14.859Z,2.00
2022-07-29T14:27:42.048Z,1.98
2022-07-29T14:30:09.378Z,1.60
2022-07-29T14:32:35.833Z,1.92
2022-07-29T14:35:02.291Z,2.00
2022-07-29T14:37:28.825Z,1.55
2022-07-29T14:40:07.266Z,1.77
2022-07-29T14:42:33.793Z,1.70
2022-07-29T14:45:00.364Z,1.85
2022-07-29T14:47:26.942Z,2.00
2022-07-29T14:49:53.574Z,1.52
2022-07-29T14:52:19.998Z,1.95
2022-07-29T14:54:46.454Z,1.70
2022-07-29T14:57:12.898Z,2.20
2022-07-29T14:59:39.332Z,1.90
2022-07-29T15:02:06.046Z,1.77
2022-07-29T15:04:32.568Z,1.70
2022-07-29T15:06:59.119Z,1.80
2022-07-29T15:09:25.692Z,1.70
2022-07-29T15:11:52.215Z,1.67
2022-07-29T15:14:18.690Z,1.90
2022-07-29T15:16:46.656Z,1.63
2022-07-29T15:19:14.827Z,1.45
2022-07-29T15:21:48.612Z,1.60
2022-07-29T15:24:18.867Z,1.70
2022-07-29T15:26:45.991Z,2.05
2022-07-29T15:29:12.645Z,1.60
2022-07-29T15:31:39.385Z,1.98
2022-07-29T15:34:07.051Z,1.45
2022-07-29T15:39:21.607Z,1.80
2022-07-29T15:41:48.095Z,1.88
2022-07-29T15:44:14.532Z,2.00
2022-07-29T15:47:00.281Z,1.70
2022-07-29T15:49:47.555Z,1.83
2022-07-29T15:52:17.124Z,1.80
2022-07-29T15:54:43.602Z,1.70
2022-07-29T15:57:10.116Z,1.67
2022-07-29T15:59:36.681Z,1.60
2022-07-29T16:02:04.395Z,1.80
2022-07-29T16:04:32.058Z,1.67
2022-07-29T16:06:59.040Z,2.10
2022-07-29T16:09:26.551Z,1.60
2022-07-29T16:11:54.034Z,1.88
2022-07-29T16:14:21.091Z,1.65
2022-07-29T16:16:48.380Z,1.52
2022-07-29T16:19:15.122Z,1.67
2022-07-29T16:21:41.582Z,1.75
2022-07-29T16:24:08.430Z,1.80
2022-07-29T16:26:35.331Z,1.90
2022-07-29T16:29:01.971Z,1.63
2022-07-29T16:31:28.541Z,1.77
2022-07-29T16:33:56.070Z,1.80
2022-07-29T16:36:23.058Z,1.42
2022-07-29T16:38:50.150Z,1.70
2022-07-29T16:41:16.771Z,1.80
2022-07-29T16:43:43.278Z,1.85
2022-07-29T16:46:15.665Z,1.50
2022-07-29T16:51:14.415Z,1.70
2022-07-29T16:53:41.340Z,1.58
2022-07-29T16:56:08.491Z,1.80
2022-07-29T16:58:41.755Z,1.85
2022-07-29T17:01:10.164Z,1.77
2022-07-29T17:03:59.963Z,1.70
2022-07-29T17:06:27.334Z,1.58
2022-07-29T17:08:53.759Z,1.90
2022-07-29T17:11:20.179Z,1.90
2022-07-29T17:13:46.598Z,1.92
2022-07-29T17:16:13.362Z,1.60
2022-07-29T17:18:39.790Z,1.70
2022-07-29T17:21:06.272Z,1.70
2022-07-29T17:23:32.706Z,1.92
2022-07-29T17:25:59.150Z,2.00
2022-07-29T17:28:25.571Z,1.50
2022-07-29T17:30:51.988Z,1.73
2022-07-29T17:33:18.434Z,1.58
2022-07-29T17:36:03.435Z,1.67
2022-07-29T17:38:29.874Z,1.60
2022-07-29T17:40:56.498Z,1.67
2022-07-29T17:43:22.904Z,1.50
2022-07-29T17:45:50.865Z,1.73
2022-07-29T17:48:18.257Z,1.70
2022-07-29T17:50:44.771Z,1.95
2022-07-29T17:53:16.266Z,1.80
2022-07-29T17:55:47.587Z,1.48
2022-07-29T17:58:16.072Z,1.50
2022-07-29T18:00:42.873Z,1.95
2022-07-29T18:03:09.827Z,1.65
2022-07-29T18:05:36.935Z,1.95
2022-07-29T18:08:03.614Z,2.10
2022-07-29T18:10:30.319Z,1.70
2022-07-29T18:12:56.795Z,1.70
2022-07-29T18:15:23.263Z,1.60
2022-07-29T18:17:56.943Z,1.67
2022-07-29T18:20:25.224Z,1.88
2022-07-29T18:22:51.823Z,1.55
2022-07-29T18:25:18.358Z,1.52
2022-07-29T18:27:45.186Z,1.80
2022-07-29T18:30:11.818Z,1.48
2022-07-29T18:32:38.233Z,1.65
2022-07-29T18:35:05.853Z,1.75
2022-07-29T18:38:01.346Z,1.58
2022-07-29T18:40:21.834Z,1.50
2022-07-29T18:42:48.268Z,1.85
2022-07-29T18:45:19.386Z,1.75
2022-07-29T18:47:47.573Z,1.67
2022-07-29T18:50:14.691Z,1.80
2022-07-29T18:52:41.795Z,2.10
2022-07-29T18:55:08.972Z,2.42
2022-07-29T18:57:54.804Z,2.40
2022-07-29T19:00:22.770Z,1.83
2022-07-29T19:02:49.939Z,1.55
2022-07-29T19:05:16.615Z,1.63
2022-07-29T19:07:43.161Z,1.60
2022-07-29T19:10:10.101Z,1.98
2022-07-29T19:12:36.896Z,1.50
2022-07-29T19:15:04.003Z,2.30
2022-07-29T19:17:30.483Z,1.77
2022-07-29T19:19:57.154Z,1.85
2022-07-29T19:22:23.671Z,2.00
2022-07-29T19:24:50.927Z,1.92
2022-07-29T19:27:17.462Z,1.83
2022-07-29T19:29:44.104Z,1.52
2022-07-29T19:32:10.882Z,1.70
2022-07-29T19:34:37.602Z,2.00
2022-07-29T19:37:04.276Z,1.60
2022-07-29T19:39:34.810Z,2.42
2022-07-29T19:42:03.366Z,2.90
2022-07-29T19:44:30.175Z,2.20
2022-07-29T19:46:56.932Z,2.58
2022-07-29T19:49:23.878Z,2.15
2022-07-29T19:51:50.427Z,1.90
2022-07-29T19:54:19.840Z,1.88
2022-07-29T19:56:46.287Z,2.15
2022-07-29T19:59:12.756Z,2.10
2022-07-29T20:01:39.616Z,1.80
2022-07-29T20:04:06.109Z,1.95
2022-07-29T20:06:32.643Z,1.95
2022-07-29T20:08:59.269Z,1.80
2022-07-29T20:11:26.549Z,1.90
2022-07-29T20:13:53.013Z,1.75
2022-07-29T20:16:19.605Z,2.15
2022-07-29T20:18:46.143Z,2.22
2022-07-29T20:21:12.596Z,2.33
2022-07-29T20:23:39.190Z,2.30
2022-07-29T20:26:09.321Z,2.45
2022-07-29T20:28:37.127Z,2.30
2022-07-29T20:31:03.683Z,1.85
2022-07-29T20:33:30.180Z,1.55
2022-07-29T20:35:56.750Z,1.73
2022-07-29T20:38:23.243Z,2.03
2022-07-29T20:40:50.761Z,2.10
2022-07-29T20:43:17.211Z,2.28
2022-07-29T20:45:43.643Z,1.98
2022-07-29T20:48:10.644Z,1.70
2022-07-29T20:50:37.057Z,1.80
2022-07-29T20:53:03.924Z,2.00
2022-07-29T20:55:31.956Z,2.20
2022-07-29T20:57:58.775Z,1.70
2022-07-29T21:00:25.260Z,2.10
2022-07-29T21:02:51.854Z,1.90
2022-07-29T21:05:18.435Z,2.17
2022-07-29T21:07:45.225Z,2.42
2022-07-29T21:10:12.147Z,2.33
2022-07-29T21:12:38.617Z,2.00
2022-07-29T21:15:06.558Z,2.15
2022-07-29T21:17:39.018Z,2.10
2022-07-29T21:20:08.451Z,1.88
2022-07-29T21:22:34.879Z,1.92
2022-07-29T21:25:01.686Z,1.88
2022-07-29T21:27:46.777Z,2.15
2022-07-29T21:30:13.367Z,1.90
2022-07-29T21:32:39.891Z,2.00
2022-07-29T21:35:15.141Z,2.10
2022-07-29T21:37:53.165Z,2.30
2022-07-29T21:40:20.211Z,2.50
2022-07-29T21:42:46.678Z,1.92
2022-07-29T21:45:15.778Z,2.40
2022-07-29T21:47:42.235Z,2.47
2022-07-29T21:50:08.906Z,2.58
2022-07-29T21:52:35.701Z,2.30
2022-07-29T21:55:04.123Z,2.13
2022-07-29T21:57:30.583Z,2.42
2022-07-29T22:00:02.171Z,2.78
2022-07-29T22:02:29.362Z,2.47
2022-07-29T22:04:55.822Z,2.08
2022-07-29T22:07:22.267Z,2.33
2022-07-29T22:09:48.780Z,2.30
2022-07-29T22:12:15.187Z,2.35
2022-07-29T22:14:42.097Z,2.10
2022-07-29T22:17:08.637Z,2.25
2022-07-29T22:19:35.118Z,2.30
2022-07-29T22:22:01.545Z,2.30
2022-07-29T22:24:28.027Z,2.05
2022-07-29T22:26:54.560Z,2.30
2022-07-29T22:29:21.003Z,2.45
2022-07-29T22:31:47.495Z,2.40
2022-07-29T22:34:14.363Z,2.30
2022-07-29T22:36:41.214Z,2.53
2022-07-29T22:39:07.950Z,2.22
2022-07-29T22:41:34.516Z,2.30
2022-07-29T22:44:01.057Z,2.08
2022-07-29T22:46:27.520Z,2.80
2022-07-29T22:48:54.150Z,2.22
2022-07-29T22:51:20.690Z,2.58
2022-07-29T22:53:47.171Z,2.40
2022-07-29T22:56:13.647Z,2.72
2022-07-29T22:58:40.060Z,4.25
2022-07-29T23:01:06.615Z,2.83
2022-07-29T23:03:33.233Z,2.72
2022-07-29T23:05:59.723Z,2.83
2022-07-29T23:08:26.182Z,2.38
2022-07-29T23:10:52.620Z,2.50
2022-07-29T23:13:19.066Z,2.30
2022-07-29T23:15:45.593Z,2.40
2022-07-29T23:18:12.143Z,2.45
2022-07-29T23:20:38.657Z,2.50
2022-07-29T23:23:05.115Z,2.63
2022-07-29T23:25:32.168Z,3.10
2022-07-29T23:27:58.621Z,2.53
2022-07-29T23:30:25.479Z,2.70
2022-07-29T23:32:52.120Z,2.88
2022-07-29T23:35:18.681Z,2.50
2022-07-29T23:37:45.346Z,2.60
2022-07-29T23:40:14.532Z,2.65
2022-07-29T23:42:42.695Z,2.78
2022-07-29T23:45:11.207Z,2.70
2022-07-29T23:47:37.965Z,2.60
2022-07-29T23:50:06.375Z,2.90
2022-07-29T23:52:32.838Z,2.83
2022-07-29T23:55:37.958Z,2.95
2022-07-29T23:57:45.922Z,2.75
